createdAt,value
2019-01-20T08:33:34.370Z,81.60
2019-01-20T08:36:02.774Z,81.80
2019-01-20T08:40:59.311Z,80.90
2019-01-20T08:43:31.718Z,80.60
2019-01-20T08:48:39.877Z,80.00
2019-01-20T08:53:36.346Z,79.80
2019-01-20T08:56:05.025Z,79.50
2019-01-20T08:58:33.431Z,79.20
2019-01-20T09:01:01.871Z,79.10
2019-01-20T09:05:58.358Z,79.40
2019-01-20T09:08:26.759Z,79.60
2019-01-20T09:10:55.162Z,79.50
2019-01-20T09:13:23.635Z,79.20
2019-01-20T09:18:20.112Z,79.40
2019-01-20T09:20:48.672Z,79.40
2019-01-20T09:23:17.084Z,79.10
2019-01-20T09:25:45.551Z,79.10
2019-01-20T09:28:13.960Z,78.90
2019-01-20T09:30:42.524Z,79.00
2019-01-20T09:33:10.924Z,78.60
2019-01-20T09:35:39.371Z,78.30
2019-01-20T09:40:35.912Z,78.10
2019-01-20T09:43:04.682Z,78.40
2019-01-20T09:48:02.123Z,78.90
2019-01-20T09:50:30.516Z,78.50
2019-01-20T09:52:58.924Z,78.30
2019-01-20T09:55:27.327Z,77.50
2019-01-20T09:57:55.848Z,77.20
2019-01-20T10:00:32.857Z,77.40
2019-01-20T10:03:01.307Z,77.40
2019-01-20T10:05:29.826Z,77.60
2019-01-20T10:10:26.459Z,76.70
2019-01-20T10:12:54.856Z,76.30
2019-01-20T10:15:23.336Z,75.90
2019-01-20T10:17:51.791Z,75.80
2019-01-20T10:20:25.844Z,75.30
2019-01-20T10:25:22.417Z,74.30
2019-01-20T10:27:50.808Z,74.10
2019-01-20T10:30:36.171Z,74.00
2019-01-20T10:33:05.143Z,74.20
2019-01-20T10:38:08.142Z,74.60
2019-01-20T10:40:36.720Z,75.40
2019-01-20T10:43:18.321Z,75.30
2019-01-20T10:48:14.999Z,73.50
2019-01-20T10:50:43.408Z,73.10
2019-01-20T10:53:11.853Z,73.10
2019-01-20T10:55:40.253Z,72.60
2019-01-20T11:00:39.156Z,72.50
2019-01-20T11:03:07.577Z,73.40
2019-01-20T11:05:36.248Z,73.10
2019-01-20T11:08:04.918Z,73.40
2019-01-20T11:13:01.388Z,73.20
2019-01-20T11:17:57.862Z,74.20
2019-01-20T11:20:26.455Z,73.70
2019-01-20T11:22:54.844Z,74.40
2019-01-20T11:25:29.538Z,74.10
2019-01-20T11:27:58.001Z,74.50
2019-01-20T11:30:26.412Z,73.50
2019-01-20T11:32:54.806Z,73.70
2019-01-20T11:37:51.280Z,74.00
2019-01-20T11:42:47.759Z,73.90
2019-01-20T11:45:19.205Z,74.00
2019-01-20T11:56:15.576Z,73.80
2019-01-20T11:58:43.977Z,73.80
2019-01-20T12:06:08.528Z,73.30
2019-01-20T12:11:05.001Z,74.00
2019-01-20T12:13:33.389Z,73.50
2019-01-20T12:16:01.800Z,72.80
2019-01-20T12:18:30.184Z,72.50
2019-01-20T12:23:26.660Z,72.50
2019-01-20T12:28:23.452Z,72.10
2019-01-20T12:33:19.992Z,73.20
2019-01-20T12:38:16.932Z,74.30
2019-01-20T12:40:46.188Z,74.70
2019-01-20T12:43:14.592Z,74.90
2019-01-20T12:48:11.069Z,76.00
2019-01-20T12:50:39.523Z,76.70
2019-01-20T12:53:07.927Z,77.00
2019-01-20T12:55:36.388Z,77.30
2019-01-20T12:58:05.448Z,77.50
2019-01-20T13:00:33.837Z,77.80
2019-01-20T13:03:02.240Z,78.00
2019-01-20T13:05:30.767Z,78.00
2019-01-20T13:10:27.258Z,78.30
2019-01-20T13:12:55.737Z,78.80
2019-01-20T13:15:24.781Z,79.60
2019-01-20T13:17:53.376Z,79.60
2019-01-20T13:20:26.024Z,79.70
2019-01-20T14:51:04.183Z,87.10
2019-01-20T14:56:00.672Z,87.30
2019-01-20T14:58:29.067Z,87.30
2019-01-20T15:00:57.476Z,87.50
2019-01-20T15:03:25.943Z,87.60
2019-01-20T15:05:54.359Z,87.70
2019-01-20T15:08:22.765Z,87.70
2019-01-20T15:10:51.251Z,87.80
2019-01-20T15:15:47.731Z,88.10
2019-01-20T15:18:16.132Z,88.30
2019-01-20T15:20:44.538Z,88.40
2019-01-20T15:23:12.932Z,88.40
2019-01-20T15:25:41.415Z,88.50
2019-01-20T15:28:09.890Z,88.40
2019-01-20T15:30:38.287Z,88.30
2019-01-20T15:33:07.327Z,88.30
2019-01-20T15:35:35.731Z,88.50
2019-01-20T15:38:04.684Z,88.30
2019-01-20T15:43:01.165Z,88.60
2019-01-20T15:47:57.713Z,88.90
2019-01-20T15:50:28.755Z,89.00
2019-01-20T15:52:57.220Z,89.10
2019-01-20T15:55:25.792Z,89.40
2019-01-20T16:00:24.712Z,89.70
2019-01-20T16:02:53.108Z,89.70
2019-01-20T16:05:21.963Z,89.70
2019-01-20T16:07:50.415Z,90.00
2019-01-20T16:12:47.436Z,90.10
2019-01-20T16:15:24.601Z,90.20
2019-01-20T16:17:53.232Z,90.30
2019-01-20T16:20:22.277Z,90.50
2019-01-20T16:22:50.760Z,90.50
2019-01-20T16:25:24.529Z,90.40
2019-01-20T16:27:53.018Z,90.50
2019-01-20T16:30:26.895Z,90.50
2019-01-20T16:32:55.304Z,90.60
2019-01-20T16:37:52.732Z,90.40
2019-01-20T16:42:50.490Z,90.50
2019-01-20T16:50:19.249Z,90.80
2019-01-20T16:55:16.148Z,90.90
2019-01-20T16:57:44.569Z,91.00
2019-01-20T17:05:16.657Z,90.90
2019-01-20T17:07:45.115Z,90.90
2019-01-20T17:10:16.691Z,90.80
2019-01-20T17:12:45.105Z,91.00
2019-01-20T17:15:22.465Z,90.90
2019-01-20T17:17:51.008Z,91.00
2019-01-20T17:20:19.408Z,91.20
2019-01-20T17:25:17.319Z,91.30
2019-01-20T17:27:46.051Z,91.40
2019-01-20T17:32:44.076Z,91.40
2019-01-20T17:35:12.486Z,91.10
2019-01-20T17:37:40.892Z,91.20
2019-01-20T17:40:12.363Z,91.30
2019-01-20T17:45:15.017Z,91.30
2019-01-20T17:50:20.389Z,91.30
2019-01-20T17:52:48.805Z,91.30
2019-01-20T17:55:17.218Z,91.40
2019-01-20T18:00:26.979Z,91.50
2019-01-20T18:02:55.472Z,91.60
2019-01-20T18:05:25.821Z,91.30
2019-01-20T18:15:21.639Z,91.50
2019-01-20T18:17:50.112Z,91.60
2019-01-20T18:20:21.332Z,91.50
2019-01-20T18:22:49.810Z,91.30
2019-01-20T18:25:19.575Z,91.20
2019-01-20T18:30:20.964Z,91.30
2019-01-20T18:32:49.493Z,91.30
2019-01-20T18:35:18.274Z,91.40
2019-01-20T18:37:46.672Z,91.40
2019-01-20T18:40:17.788Z,91.30
2019-01-20T18:42:46.252Z,91.20
2019-01-20T18:45:23.140Z,91.20
2019-01-20T18:47:51.613Z,91.30
2019-01-20T18:50:22.931Z,91.30
2019-01-20T18:52:51.338Z,91.30
2019-01-20T18:55:19.944Z,91.20
2019-01-20T18:57:48.508Z,91.20
2019-01-20T19:00:22.223Z,91.40
2019-01-20T19:02:50.929Z,91.50
2019-01-20T19:07:47.612Z,91.50
2019-01-20T19:10:20.628Z,91.40
2019-01-20T19:15:19.632Z,91.20
2019-01-20T19:17:48.301Z,91.20
2019-01-20T19:20:19.195Z,91.20
2019-01-20T19:22:49.171Z,91.40
2019-01-20T19:25:18.221Z,91.40
2019-01-20T19:27:46.796Z,91.30
2019-01-20T19:30:21.110Z,91.40
2019-01-20T19:32:49.513Z,91.30
2019-01-20T19:35:18.097Z,91.40
2019-01-20T19:37:46.557Z,91.40
2019-01-20T19:40:15.845Z,91.40
2019-01-20T19:42:44.288Z,91.50
2019-01-20T19:45:18.756Z,91.60
2019-01-20T19:47:47.636Z,91.80
2019-01-20T19:50:17.380Z,91.80
2019-01-20T19:52:45.785Z,91.60
2019-01-20T19:55:24.084Z,91.70
2019-01-20T20:00:26.275Z,91.80
2019-01-20T20:02:54.888Z,91.80
2019-01-20T20:05:23.367Z,91.80
2019-01-20T20:07:53.103Z,92.00
2019-01-20T20:10:24.008Z,91.80
2019-01-20T20:12:53.044Z,91.70
2019-01-20T20:15:23.448Z,91.80
2019-01-20T20:17:51.969Z,91.70
2019-01-20T20:20:21.626Z,91.70
2019-01-20T20:25:20.428Z,91.80
2019-01-20T20:27:49.104Z,91.90
2019-01-20T20:30:28.844Z,91.50
2019-01-20T20:32:57.320Z,91.40
2019-01-20T20:35:25.726Z,91.40
2019-01-20T20:37:54.219Z,91.40
2019-01-20T20:40:22.795Z,91.40
2019-01-20T20:42:51.201Z,91.30
2019-01-20T20:45:21.939Z,91.40
2019-01-20T20:47:50.349Z,91.50
2019-01-20T20:52:47.081Z,91.60
2019-01-20T20:55:34.821Z,91.50
2019-01-20T20:58:03.225Z,91.60
2019-01-20T21:05:30.547Z,91.60
2019-01-20T21:07:58.966Z,91.60
2019-01-20T21:10:27.367Z,91.60
2019-01-20T21:12:55.782Z,91.60
2019-01-20T21:17:52.253Z,91.70
2019-01-20T21:20:22.834Z,91.80
2019-01-20T21:22:51.356Z,91.90
2019-01-20T21:25:19.826Z,91.80
2019-01-20T21:27:48.304Z,91.90
2019-01-20T21:30:22.416Z,92.00
2019-01-20T21:35:18.960Z,91.80
2019-01-20T21:37:47.439Z,91.80
2019-01-20T21:40:17.979Z,91.90
2019-01-20T21:42:46.456Z,91.80
2019-01-20T21:45:16.800Z,91.80
2019-01-20T21:47:45.349Z,91.70
2019-01-20T21:50:16.831Z,91.70
2019-01-20T21:52:45.228Z,91.70
2019-01-20T21:55:13.634Z,91.70
2019-01-20T21:57:42.046Z,91.80
2019-01-20T22:00:13.589Z,91.70
2019-01-20T22:02:42.000Z,91.70
2019-01-20T22:05:11.236Z,91.80
2019-01-20T22:07:39.648Z,91.80
2019-01-20T22:10:10.955Z,91.90
2019-01-20T22:12:39.364Z,91.90
2019-01-20T22:15:09.500Z,91.90
2019-01-20T22:17:37.983Z,91.80
2019-01-20T22:20:09.595Z,91.90
2019-01-20T22:22:57.424Z,91.80
2019-01-20T22:25:25.827Z,92.10
2019-01-20T22:30:24.388Z,92.30
2019-01-20T22:32:52.940Z,92.10
2019-01-20T22:35:21.382Z,92.10
2019-01-20T22:40:19.108Z,92.10
2019-01-20T22:45:21.404Z,92.10
2019-01-20T22:47:49.803Z,92.40
2019-01-20T22:50:18.340Z,92.40
2019-01-20T22:52:46.764Z,92.40
2019-01-20T22:57:44.493Z,92.20
2019-01-20T23:00:28.944Z,91.90
2019-01-20T23:02:57.352Z,92.10
2019-01-20T23:05:25.756Z,92.20
2019-01-20T23:07:54.164Z,91.80
2019-01-20T23:10:22.652Z,92.00
2019-01-20T23:12:51.055Z,92.00
2019-01-20T23:17:47.560Z,92.10
2019-01-20T23:20:17.476Z,92.10
2019-01-20T23:22:46.048Z,91.90
2019-01-20T23:25:14.471Z,92.10
2019-01-20T23:27:42.879Z,92.30
2019-01-20T23:30:17.593Z,92.20
2019-01-20T23:32:46.008Z,92.20
2019-01-20T23:35:14.791Z,92.10
2019-01-20T23:37:43.188Z,92.00
2019-01-20T23:40:13.937Z,92.00
2019-01-20T23:42:42.371Z,92.30
2019-01-20T23:45:12.063Z,92.20
2019-01-20T23:47:40.500Z,91.90
2019-01-20T23:50:16.676Z,91.80
2019-01-20T23:52:45.296Z,91.80
2019-01-20T23:55:14.446Z,91.80
